Time;durP1;ratioP1;P1;durP2;ratioP2;P2;SDS_P1;SDS_P2;PMS_P1;PMS_P2;Temp;Humidity;BMP_temperature;BMP_pressure;BME280_temperature;BME280_humidity;BME280_pressure;Samples;Min_cycle;Max_cycle;Signal;HPM_P1;HPM_P2
2023/11/30 00:00:18;;;;;;;5.03;4.53;;;2.80;98.50;;;;;;5003710;28;20204;-74
2023/11/30 00:02:45;;;;;;;4.47;4.07;;;2.80;98.70;;;;;;5009546;28;20649;-74
2023/11/30 00:05:13;;;;;;;4.85;4.45;;;2.80;99.00;;;;;;5006116;28;20254;-74
2023/11/30 00:07:41;;;;;;;6.10;4.68;;;2.80;99.00;;;;;;5004112;28;20255;-74
2023/11/30 00:10:09;;;;;;;5.20;4.70;;;2.80;98.90;;;;;;4971972;28;20731;-74
2023/11/30 00:12:36;;;;;;;4.65;4.25;;;2.80;98.50;;;;;;5017591;28;21466;-74
2023/11/30 00:15:04;;;;;;;4.35;4.05;;;2.80;98.50;;;;;;5027318;28;20266;-75
2023/11/30 00:17:31;;;;;;;4.20;3.90;;;2.80;98.70;;;;;;5024534;28;20230;-74
2023/11/30 00:19:58;;;;;;;4.70;4.30;;;2.90;98.40;;;;;;5021163;28;20302;-74
2023/11/30 00:22:25;;;;;;;4.20;3.80;;;2.90;98.40;;;;;;5005843;28;20313;-74
2023/11/30 00:24:54;;;;;;;4.18;3.88;;;2.90;98.70;;;;;;5006809;28;20199;-75
2023/11/30 00:27:21;;;;;;;4.30;4.00;;;2.90;98.90;;;;;;5025352;28;20227;-74
2023/11/30 00:29:48;;;;;;;4.03;3.80;;;2.90;99.00;;;;;;4989343;28;20199;-73
2023/11/30 00:32:15;;;;;;;4.50;4.20;;;3.00;99.20;;;;;;5020831;28;20243;-73
2023/11/30 00:34:42;;;;;;;3.78;3.58;;;3.00;99.10;;;;;;5021368;28;20290;-74
2023/11/30 00:37:09;;;;;;;4.03;3.78;;;3.00;98.80;;;;;;5004363;28;20664;-74
2023/11/30 00:39:36;;;;;;;4.05;3.75;;;3.00;98.30;;;;;;5002047;28;20777;-74
2023/11/30 00:42:05;;;;;;;4.07;3.83;;;3.00;98.20;;;;;;5014572;28;20303;-74
2023/11/30 00:44:32;;;;;;;4.03;3.75;;;2.90;98.30;;;;;;5003807;28;20224;-73
2023/11/30 00:46:59;;;;;;;3.85;3.65;;;2.90;98.50;;;;;;5012112;28;20243;-74
2023/11/30 00:49:26;;;;;;;3.80;3.60;;;2.90;98.80;;;;;;5024885;28;20624;-76
2023/11/30 00:51:53;;;;;;;4.00;3.70;;;2.80;99.20;;;;;;5020843;28;20228;-74
2023/11/30 00:54:20;;;;;;;4.40;4.10;;;2.80;99.00;;;;;;4991793;28;20242;-74
2023/11/30 00:56:47;;;;;;;4.00;3.80;;;2.70;98.80;;;;;;5008935;28;20267;-73
2023/11/30 00:59:16;;;;;;;3.70;3.50;;;2.70;98.90;;;;;;5007319;28;20296;-74
2023/11/30 01:01:43;;;;;;;4.07;3.78;;;2.60;99.10;;;;;;4990816;28;20259;-73
2023/11/30 01:04:10;;;;;;;4.20;3.90;;;2.60;99.40;;;;;;5006919;28;20236;-74
2023/11/30 01:06:37;;;;;;;3.85;3.65;;;2.60;99.50;;;;;;5006291;28;20228;-75
2023/11/30 01:09:04;;;;;;;3.80;3.50;;;2.60;99.50;;;;;;5007514;28;20204;-75
2023/11/30 01:11:31;;;;;;;4.00;3.70;;;2.70;99.40;;;;;;5005829;28;20307;-73
2023/11/30 01:13:58;;;;;;;3.70;3.50;;;2.60;99.40;;;;;;5008783;28;20235;-73
2023/11/30 01:16:27;;;;;;;4.03;3.72;;;2.60;99.50;;;;;;5005580;28;20291;-74
2023/11/30 01:18:54;;;;;;;3.83;3.53;;;2.60;99.50;;;;;;5006155;28;20302;-75
2023/11/30 01:21:21;;;;;;;3.90;3.70;;;2.60;99.40;;;;;;5004868;28;20288;-73
2023/11/30 01:23:48;;;;;;;4.00;3.70;;;2.60;99.40;;;;;;4990986;28;20674;-73
2023/11/30 01:26:15;;;;;;;4.10;3.80;;;2.60;99.40;;;;;;5002340;28;20295;-73
2023/11/30 01:28:43;;;;;;;4.25;3.95;;;2.60;99.60;;;;;;5005144;28;20239;-73
2023/11/30 01:31:10;;;;;;;3.60;3.40;;;2.60;99.30;;;;;;5004109;28;20205;-73
2023/11/30 01:33:39;;;;;;;3.78;3.50;;;2.50;99.70;;;;;;5006311;28;20823;-73
2023/11/30 01:36:07;;;;;;;4.75;4.07;;;2.50;99.90;;;;;;5003395;28;20237;-74
2023/11/30 01:38:34;;;;;;;3.97;3.78;;;2.50;99.90;;;;;;5024579;28;20850;-73
2023/11/30 01:41:01;;;;;;;4.72;4.28;;;2.50;99.90;;;;;;5025186;28;20298;-73
2023/11/30 01:43:28;;;;;;;4.93;4.22;;;2.60;99.90;;;;;;5025764;28;20307;-73
2023/11/30 01:45:55;;;;;;;3.50;3.30;;;2.60;99.90;;;;;;5023409;28;20654;-73
2023/11/30 01:48:22;;;;;;;3.90;3.60;;;2.60;99.90;;;;;;4989003;28;20778;-73
2023/11/30 01:50:52;;;;;;;3.90;3.60;;;2.50;99.90;;;;;;5006658;28;20208;-75
2023/11/30 01:53:19;;;;;;;3.63;3.40;;;2.50;99.90;;;;;;5005091;28;20226;-73
2023/11/30 01:55:46;;;;;;;3.63;3.42;;;2.50;99.90;;;;;;5006053;28;20266;-73
2023/11/30 01:58:14;;;;;;;3.45;3.25;;;2.50;99.90;;;;;;5003025;28;20310;-72
2023/11/30 02:00:41;;;;;;;3.90;3.60;;;2.50;99.90;;;;;;5004075;28;20578;-73
2023/11/30 02:03:08;;;;;;;4.15;3.85;;;2.50;99.90;;;;;;5002071;28;20630;-74
2023/11/30 02:05:36;;;;;;;3.97;3.67;;;2.50;99.70;;;;;;5006202;28;20231;-73
2023/11/30 02:08:05;;;;;;;4.10;3.80;;;2.50;99.70;;;;;;4989439;28;20632;-73
2023/11/30 02:10:32;;;;;;;3.13;3.00;;;2.50;99.90;;;;;;4990436;28;20279;-72
2023/11/30 02:12:59;;;;;;;3.63;3.42;;;2.60;99.90;;;;;;5002454;28;20248;-73
2023/11/30 02:15:26;;;;;;;3.67;3.40;;;2.60;99.90;;;;;;5002285;28;20232;-73
2023/11/30 02:17:53;;;;;;;3.83;3.38;;;2.60;99.90;;;;;;5001459;28;20307;-73
2023/11/30 02:20:20;;;;;;;3.28;3.08;;;2.60;99.90;;;;;;5006637;28;20299;-73
2023/11/30 02:22:48;;;;;;;3.90;3.60;;;2.60;99.90;;;;;;5015650;28;20311;-74
2023/11/30 02:25:15;;;;;;;3.40;3.20;;;2.70;99.90;;;;;;5001011;28;20674;-73
2023/11/30 02:27:43;;;;;;;3.60;3.40;;;2.70;99.90;;;;;;5000107;28;20318;-73
2023/11/30 02:30:12;;;;;;;3.70;3.40;;;2.70;99.90;;;;;;5005075;28;20239;-73
2023/11/30 02:32:39;;;;;;;3.78;3.40;;;2.60;99.90;;;;;;5002703;28;20737;-74
2023/11/30 02:35:06;;;;;;;3.28;3.13;;;2.60;99.90;;;;;;5004863;28;20291;-73
2023/11/30 02:37:33;;;;;;;3.50;3.30;;;2.60;99.90;;;;;;5004039;28;20264;-74
2023/11/30 02:40:02;;;;;;;3.78;3.47;;;2.60;99.90;;;;;;5002044;28;20315;-74
2023/11/30 02:42:29;;;;;;;3.50;3.22;;;2.60;99.90;;;;;;4985827;28;20307;-73
2023/11/30 02:44:56;;;;;;;3.75;3.50;;;2.60;99.90;;;;;;4983196;28;20287;-73
2023/11/30 02:47:23;;;;;;;4.32;4.03;;;2.60;99.90;;;;;;5000065;28;20319;-73
2023/11/30 02:49:50;;;;;;;5.15;3.63;;;2.60;99.90;;;;;;5002472;28;20235;-73
2023/11/30 02:52:17;;;;;;;4.43;4.13;;;2.60;99.90;;;;;;5006113;28;20311;-73
2023/11/30 02:54:44;;;;;;;4.40;4.10;;;2.60;99.90;;;;;;5004508;28;20200;-73
2023/11/30 02:57:13;;;;;;;4.10;3.70;;;2.60;99.90;;;;;;5003713;28;20307;-73
2023/11/30 02:59:40;;;;;;;4.15;3.85;;;2.50;99.90;;;;;;5003603;28;20286;-74
2023/11/30 03:02:07;;;;;;;3.70;3.50;;;2.50;99.90;;;;;;4982967;28;20220;-73
2023/11/30 03:04:34;;;;;;;4.13;3.83;;;2.60;99.90;;;;;;5002321;28;20881;-73
2023/11/30 03:07:01;;;;;;;4.03;3.83;;;2.60;99.90;;;;;;4988534;28;20925;-74
2023/11/30 03:09:30;;;;;;;4.15;3.85;;;2.60;99.90;;;;;;5004561;28;20293;-73
2023/11/30 03:11:57;;;;;;;3.70;3.50;;;2.60;99.90;;;;;;4992364;28;20227;-76
2023/11/30 03:14:27;;;;;;;4.00;3.70;;;2.60;99.90;;;;;;5024646;28;20294;-73
2023/11/30 03:16:54;;;;;;;4.13;3.83;;;2.60;99.90;;;;;;5015560;28;20330;-73
2023/11/30 03:19:21;;;;;;;3.65;3.45;;;2.60;99.90;;;;;;5016380;28;20324;-73
2023/11/30 03:21:51;;;;;;;4.20;3.90;;;2.50;99.90;;;;;;4986839;28;20228;-73
2023/11/30 03:24:18;;;;;;;4.43;4.13;;;2.50;99.90;;;;;;5004160;28;20568;-73
2023/11/30 03:26:46;;;;;;;4.10;3.80;;;2.50;99.90;;;;;;5005009;28;22218;-73
2023/11/30 03:29:13;;;;;;;4.32;4.03;;;2.50;99.90;;;;;;5002878;28;20299;-74
2023/11/30 03:31:41;;;;;;;4.18;3.90;;;2.50;99.90;;;;;;5015385;28;20337;-73
2023/11/30 03:34:08;;;;;;;3.67;3.40;;;2.60;99.90;;;;;;5005658;28;20290;-74
2023/11/30 03:36:35;;;;;;;4.40;4.10;;;2.50;99.90;;;;;;4986551;28;20216;-72
2023/11/30 03:39:02;;;;;;;3.80;3.53;;;2.60;99.90;;;;;;5001323;28;20235;-73
2023/11/30 03:41:29;;;;;;;4.03;3.78;;;2.60;99.90;;;;;;5012102;28;20225;-73
2023/11/30 03:43:56;;;;;;;4.00;3.70;;;2.60;99.90;;;;;;5002072;28;20212;-73
2023/11/30 03:46:25;;;;;;;3.97;3.78;;;2.70;99.90;;;;;;5002591;28;20242;-73
2023/11/30 03:48:54;;;;;;;3.92;3.67;;;2.70;99.90;;;;;;5002731;28;20228;-72
2023/11/30 03:51:24;;;;;;;3.95;3.65;;;2.70;99.90;;;;;;4983530;28;20236;-74
2023/11/30 03:53:51;;;;;;;4.07;3.78;;;2.60;99.90;;;;;;5017207;28;20208;-73
2023/11/30 03:56:18;;;;;;;4.15;3.85;;;2.70;99.90;;;;;;5000318;28;20288;-73
2023/11/30 03:58:45;;;;;;;3.60;3.40;;;2.70;99.90;;;;;;5006847;28;20259;-73
2023/11/30 04:01:12;;;;;;;3.90;3.60;;;2.70;99.90;;;;;;5001943;28;20303;-73
2023/11/30 04:03:40;;;;;;;4.00;3.70;;;2.70;99.90;;;;;;4997902;28;20338;-73
2023/11/30 04:06:09;;;;;;;4.20;3.90;;;2.80;99.90;;;;;;5004392;28;20727;-73
2023/11/30 04:08:36;;;;;;;4.20;3.90;;;2.70;99.90;;;;;;5003806;28;20285;-73
2023/11/30 04:11:03;;;;;;;4.20;3.88;;;2.70;99.90;;;;;;5005010;28;20235;-73
2023/11/30 04:13:30;;;;;;;3.78;3.47;;;2.70;99.90;;;;;;5020326;28;20314;-74
2023/11/30 04:15:57;;;;;;;4.60;4.20;;;2.70;99.90;;;;;;5024352;28;20287;-73
2023/11/30 04:18:24;;;;;;;4.32;4.03;;;2.70;99.90;;;;;;5025021;28;20239;-73
2023/11/30 04:20:51;;;;;;;4.00;3.70;;;2.60;99.90;;;;;;5005351;28;20219;-72
2023/11/30 04:23:20;;;;;;;3.50;3.30;;;2.60;99.90;;;;;;5020975;28;20223;-73
2023/11/30 04:25:47;;;;;;;3.55;3.35;;;2.60;99.90;;;;;;5025556;28;20302;-74
2023/11/30 04:28:14;;;;;;;3.90;3.70;;;2.70;99.90;;;;;;5023256;28;20251;-73
2023/11/30 04:30:41;;;;;;;3.75;3.55;;;2.70;99.90;;;;;;5024956;28;20280;-73
2023/11/30 04:33:08;;;;;;;3.60;3.40;;;2.70;99.90;;;;;;5024059;28;20223;-74
2023/11/30 04:35:35;;;;;;;3.83;3.63;;;2.70;99.90;;;;;;5010396;28;20608;-73
2023/11/30 04:38:02;;;;;;;3.42;3.22;;;2.80;99.90;;;;;;5025544;28;20307;-74
2023/11/30 04:40:31;;;;;;;3.80;3.60;;;2.70;99.90;;;;;;5027223;28;20319;-74
2023/11/30 04:42:58;;;;;;;4.22;3.92;;;2.70;99.90;;;;;;5021809;28;20306;-73
2023/11/30 04:45:25;;;;;;;3.67;3.47;;;2.70;99.90;;;;;;5027817;28;20322;-73
2023/11/30 04:47:52;;;;;;;3.70;3.50;;;2.70;99.90;;;;;;4994496;28;20333;-73
2023/11/30 04:50:19;;;;;;;3.67;3.47;;;2.80;99.90;;;;;;4989615;28;20192;-73
2023/11/30 04:52:46;;;;;;;3.92;3.65;;;2.80;99.90;;;;;;5021995;28;20308;-73
2023/11/30 04:55:13;;;;;;;3.92;3.72;;;2.80;99.90;;;;;;5027214;28;20572;-75
2023/11/30 04:57:42;;;;;;;3.72;3.53;;;2.80;99.90;;;;;;5029960;28;20250;-73
2023/11/30 05:00:10;;;;;;;3.45;3.25;;;2.80;99.90;;;;;;5024981;28;20255;-73
2023/11/30 05:02:37;;;;;;;4.20;3.90;;;2.80;99.90;;;;;;5022134;28;20227;-73
2023/11/30 05:05:06;;;;;;;4.05;3.75;;;2.90;99.90;;;;;;5026590;28;20206;-73
2023/11/30 05:07:33;;;;;;;4.45;4.15;;;2.90;99.90;;;;;;5005378;28;20999;-73
2023/11/30 05:10:00;;;;;;;4.65;4.30;;;2.90;99.90;;;;;;5022873;28;20206;-73
2023/11/30 05:12:27;;;;;;;4.72;4.28;;;2.80;99.90;;;;;;5004976;28;20222;-74
2023/11/30 05:14:56;;;;;;;4.28;3.95;;;2.70;99.90;;;;;;5008510;28;20213;-73
2023/11/30 05:17:23;;;;;;;4.30;4.00;;;2.60;99.90;;;;;;5025199;28;20608;-75
2023/11/30 05:19:50;;;;;;;4.82;4.53;;;2.50;99.90;;;;;;4994201;28;20796;-73
2023/11/30 05:22:17;;;;;;;4.50;4.20;;;2.50;99.90;;;;;;5014317;28;20247;-74
2023/11/30 05:24:44;;;;;;;4.60;4.20;;;2.50;99.90;;;;;;5000754;28;20254;-73
2023/11/30 05:27:11;;;;;;;4.45;4.15;;;2.40;99.90;;;;;;5011342;28;20260;-73
2023/11/30 05:29:38;;;;;;;4.18;3.90;;;2.40;99.90;;;;;;5025663;28;20740;-72
2023/11/30 05:32:07;;;;;;;5.70;5.20;;;2.40;99.90;;;;;;5005295;28;20595;-73
2023/11/30 05:34:35;;;;;;;5.00;4.50;;;2.40;99.90;;;;;;5023608;28;20206;-73
2023/11/30 05:37:03;;;;;;;4.78;4.38;;;2.30;99.90;;;;;;4990979;28;20625;-74
2023/11/30 05:39:30;;;;;;;5.22;4.47;;;2.20;99.90;;;;;;5025236;28;20215;-74
2023/11/30 05:42:00;;;;;;;4.85;4.45;;;2.10;99.90;;;;;;5021718;28;20293;-75
2023/11/30 05:44:27;;;;;;;4.78;4.47;;;2.00;99.90;;;;;;4978223;28;20671;-74
2023/11/30 05:46:54;;;;;;;4.75;4.35;;;2.00;99.90;;;;;;5025831;28;20315;-74
2023/11/30 05:49:22;;;;;;;5.22;4.72;;;2.00;99.90;;;;;;5026759;28;20287;-74
2023/11/30 05:51:51;;;;;;;4.72;4.38;;;2.10;99.90;;;;;;5006803;28;20680;-74
2023/11/30 05:54:18;;;;;;;5.68;4.80;;;2.10;99.90;;;;;;5005186;28;20203;-75
2023/11/30 05:56:46;;;;;;;6.22;5.15;;;2.10;99.90;;;;;;5009211;28;20411;-75
2023/11/30 05:59:13;;;;;;;4.97;4.65;;;2.00;99.90;;;;;;5006163;28;20204;-74
2023/11/30 06:01:41;;;;;;;5.35;4.95;;;2.00;99.90;;;;;;5005175;28;20718;-73
2023/11/30 06:04:08;;;;;;;4.60;4.30;;;2.00;99.90;;;;;;5009566;28;20235;-73
2023/11/30 06:06:36;;;;;;;5.03;4.63;;;2.00;99.90;;;;;;5006897;28;20259;-74
2023/11/30 06:09:04;;;;;;;5.20;4.80;;;2.00;99.90;;;;;;5005909;28;20744;-74
2023/11/30 06:11:32;;;;;;;5.57;5.07;;;2.00;99.90;;;;;;5007617;28;20290;-73
2023/11/30 06:14:00;;;;;;;5.05;4.65;;;2.00;99.90;;;;;;5019138;28;20287;-76
2023/11/30 06:16:27;;;;;;;5.50;5.00;;;2.00;99.90;;;;;;4992611;28;20283;-77
2023/11/30 06:18:54;;;;;;;5.10;4.60;;;2.00;99.90;;;;;;5007016;28;20208;-72
2023/11/30 06:21:21;;;;;;;5.07;4.15;;;2.10;99.90;;;;;;4989732;28;20212;-75
2023/11/30 06:23:50;;;;;;;5.25;4.85;;;2.10;99.90;;;;;;4992957;28;20204;-75
2023/11/30 06:26:16;;;;;;;4.63;4.30;;;2.10;99.90;;;;;;5005936;28;20227;-75
2023/11/30 06:28:43;;;;;;;5.05;4.30;;;2.20;99.90;;;;;;5006435;28;20262;-74
2023/11/30 06:31:10;;;;;;;4.70;4.40;;;2.30;99.90;;;;;;5005398;28;20228;-75
2023/11/30 06:33:37;;;;;;;5.72;4.80;;;2.40;99.90;;;;;;5006821;28;20243;-74
2023/11/30 06:36:05;;;;;;;4.25;3.95;;;2.40;99.90;;;;;;5004852;28;20296;-74
2023/11/30 06:38:32;;;;;;;4.50;4.20;;;2.50;99.90;;;;;;5005026;28;20325;-74
2023/11/30 06:41:02;;;;;;;4.53;4.22;;;2.50;99.90;;;;;;5000163;28;20331;-74
2023/11/30 06:43:30;;;;;;;4.63;4.32;;;2.40;99.90;;;;;;5004193;28;20847;-74
2023/11/30 06:45:57;;;;;;;4.15;3.85;;;2.40;99.90;;;;;;5005747;28;20208;-75
2023/11/30 06:48:25;;;;;;;4.43;4.13;;;2.40;99.90;;;;;;5002679;28;20311;-75
2023/11/30 06:50:52;;;;;;;5.30;4.90;;;2.40;99.90;;;;;;4989523;28;20235;-74
2023/11/30 06:53:19;;;;;;;5.82;5.32;;;2.40;99.90;;;;;;5004035;28;20220;-74
2023/11/30 06:55:46;;;;;;;5.50;4.97;;;2.30;99.90;;;;;;4986977;28;20654;-75
2023/11/30 06:58:15;;;;;;;7.38;5.68;;;2.10;99.90;;;;;;5003933;28;20248;-74
2023/11/30 07:00:43;;;;;;;8.20;6.78;;;1.90;99.90;;;;;;5004795;28;20307;-74
2023/11/30 07:03:10;;;;;;;7.05;6.35;;;1.60;99.90;;;;;;5007023;28;20303;-75
2023/11/30 07:05:37;;;;;;;5.97;5.43;;;1.40;99.90;;;;;;5002632;28;20879;-74
2023/11/30 07:08:04;;;;;;;5.45;4.95;;;1.50;99.90;;;;;;4983089;28;20734;-74
2023/11/30 07:10:32;;;;;;;5.55;5.15;;;1.50;99.90;;;;;;5019445;28;20227;-74
2023/11/30 07:12:59;;;;;;;5.03;4.72;;;1.70;99.90;;;;;;5002465;28;20286;-74
2023/11/30 07:15:27;;;;;;;4.30;4.00;;;1.80;99.90;;;;;;4986509;28;20287;-74
2023/11/30 07:17:54;;;;;;;5.18;4.38;;;1.90;99.90;;;;;;4986975;28;20233;-75
2023/11/30 07:20:22;;;;;;;4.97;4.60;;;1.90;99.90;;;;;;5014041;28;20258;-74
2023/11/30 07:22:49;;;;;;;4.15;3.85;;;2.00;99.90;;;;;;5007857;28;20223;-74
2023/11/30 07:25:16;;;;;;;4.60;4.30;;;2.10;99.90;;;;;;5005302;28;20697;-74
2023/11/30 07:27:43;;;;;;;4.40;4.10;;;2.10;99.90;;;;;;5003870;28;20263;-75
2023/11/30 07:30:11;;;;;;;4.05;3.85;;;2.20;99.90;;;;;;5004230;28;20240;-74
2023/11/30 07:32:40;;;;;;;4.28;3.97;;;2.20;99.90;;;;;;5004723;28;20227;-75
2023/11/30 07:35:07;;;;;;;3.88;3.58;;;2.30;99.90;;;;;;5006327;28;20200;-75
2023/11/30 07:37:34;;;;;;;3.53;3.33;;;2.30;99.90;;;;;;5004444;28;20248;-75
2023/11/30 07:40:03;;;;;;;4.18;3.95;;;2.40;99.90;;;;;;5004468;28;20231;-75
2023/11/30 07:42:30;;;;;;;3.70;3.50;;;2.40;99.90;;;;;;5004439;28;20212;-73
2023/11/30 07:44:57;;;;;;;4.40;4.00;;;2.40;99.90;;;;;;5005616;28;20232;-74
2023/11/30 07:47:24;;;;;;;4.10;3.83;;;2.40;99.90;;;;;;5003239;28;20262;-74
2023/11/30 07:49:53;;;;;;;4.20;3.92;;;2.50;99.90;;;;;;4988107;28;20228;-74
2023/11/30 07:52:20;;;;;;;3.55;3.35;;;2.40;99.90;;;;;;5006839;28;20303;-74
2023/11/30 07:54:47;;;;;;;4.28;3.97;;;2.40;99.90;;;;;;5004887;28;20208;-74
2023/11/30 07:57:16;;;;;;;3.97;3.78;;;2.40;99.90;;;;;;5018898;28;20266;-74
2023/11/30 07:59:44;;;;;;;4.55;4.25;;;2.40;99.90;;;;;;5001271;28;20212;-75
2023/11/30 08:02:11;;;;;;;4.65;4.35;;;2.40;99.90;;;;;;5005974;28;20319;-75
2023/11/30 08:04:38;;;;;;;4.57;4.28;;;2.40;99.90;;;;;;5005933;28;20262;-75
2023/11/30 08:07:06;;;;;;;4.78;4.47;;;2.20;99.90;;;;;;5004027;28;20227;-74
2023/11/30 08:09:33;;;;;;;4.57;4.28;;;2.20;99.90;;;;;;5004806;28;20304;-73
2023/11/30 08:12:01;;;;;;;4.70;4.38;;;2.10;99.90;;;;;;5012992;28;20231;-74
2023/11/30 08:14:29;;;;;;;4.95;4.50;;;2.10;99.90;;;;;;5001977;28;20204;-75
2023/11/30 08:16:56;;;;;;;4.55;4.25;;;2.10;99.90;;;;;;5005356;28;20589;-74
2023/11/30 08:19:23;;;;;;;5.22;4.93;;;2.00;99.90;;;;;;5004034;28;20240;-74
2023/11/30 08:21:50;;;;;;;4.50;4.30;;;1.90;99.90;;;;;;4999692;28;20327;-74
2023/11/30 08:24:19;;;;;;;5.00;4.68;;;1.90;99.90;;;;;;5004140;28;20255;-75
2023/11/30 08:26:46;;;;;;;4.60;4.30;;;1.90;99.90;;;;;;5003266;28;20250;-75
2023/11/30 08:29:15;;;;;;;4.90;4.50;;;1.90;99.90;;;;;;4984041;28;20208;-77
2023/11/30 08:31:42;;;;;;;4.63;4.30;;;1.90;99.90;;;;;;5002749;28;20224;-75
2023/11/30 08:34:10;;;;;;;4.80;4.50;;;1.90;99.90;;;;;;4968660;28;20203;-75
2023/11/30 08:36:37;;;;;;;4.88;4.50;;;2.00;99.90;;;;;;5002153;28;20773;-75
2023/11/30 08:39:05;;;;;;;4.25;3.95;;;2.00;99.90;;;;;;5003108;28;20204;-76
2023/11/30 08:41:36;;;;;;;5.18;4.40;;;2.00;99.90;;;;;;5002947;28;20224;-74
2023/11/30 08:44:03;;;;;;;4.50;4.20;;;2.10;99.90;;;;;;4984306;28;20197;-76
2023/11/30 08:46:31;;;;;;;5.00;4.70;;;2.20;99.90;;;;;;5007322;28;20200;-74
2023/11/30 08:48:58;;;;;;;5.07;4.78;;;2.20;99.90;;;;;;5028273;28;20213;-74
2023/11/30 08:51:25;;;;;;;5.00;4.70;;;2.20;99.90;;;;;;5019932;28;20215;-74
2023/11/30 08:53:52;;;;;;;5.03;4.63;;;2.30;99.90;;;;;;5022006;28;20231;-74
2023/11/30 08:56:20;;;;;;;5.47;5.13;;;2.30;99.90;;;;;;5023655;28;20350;-76
2023/11/30 08:58:49;;;;;;;5.85;5.45;;;2.30;99.90;;;;;;5024104;28;20290;-74
2023/11/30 09:01:16;;;;;;;5.97;5.57;;;2.30;99.90;;;;;;5018684;28;20251;-74
2023/11/30 09:03:43;;;;;;;7.10;6.50;;;2.30;99.90;;;;;;5021484;28;20200;-74
2023/11/30 09:06:11;;;;;;;6.82;6.32;;;2.30;99.90;;;;;;5019831;28;20195;-74
2023/11/30 09:08:39;;;;;;;7.97;7.30;;;2.20;99.90;;;;;;5024951;28;20251;-74
2023/11/30 09:11:07;;;;;;;6.60;6.10;;;2.20;99.90;;;;;;5023057;28;20632;-73
2023/11/30 09:13:35;;;;;;;7.40;6.80;;;2.20;99.90;;;;;;5023974;28;20306;-74
2023/11/30 09:16:04;;;;;;;8.57;6.88;;;2.30;99.90;;;;;;5026002;28;20199;-75
2023/11/30 09:18:32;;;;;;;7.00;6.40;;;2.30;99.90;;;;;;5018054;28;20515;-73
2023/11/30 09:20:59;;;;;;;6.35;5.85;;;2.20;99.90;;;;;;5018239;28;20744;-73
2023/11/30 09:23:26;;;;;;;6.82;6.32;;;2.30;99.90;;;;;;5024875;28;20224;-72
2023/11/30 09:25:53;;;;;;;7.25;6.55;;;2.20;99.90;;;;;;5025870;28;20203;-72
2023/11/30 09:28:21;;;;;;;7.15;6.57;;;2.20;99.90;;;;;;4989189;28;22262;-70
2023/11/30 09:30:48;;;;;;;7.40;6.80;;;2.20;99.90;;;;;;5004596;28;20204;-73
2023/11/30 09:33:17;;;;;;;6.95;6.43;;;2.20;99.90;;;;;;5021732;28;20219;-73
2023/11/30 09:35:44;;;;;;;6.90;6.30;;;2.30;99.90;;;;;;5006306;28;20869;-72
2023/11/30 09:38:10;;;;;;;7.25;6.65;;;2.30;99.90;;;;;;5022270;28;20262;-73
2023/11/30 09:40:39;;;;;;;6.90;6.30;;;2.30;99.90;;;;;;5007450;28;20242;-73
2023/11/30 09:43:06;;;;;;;7.07;6.47;;;2.30;99.90;;;;;;5026167;28;20232;-72
2023/11/30 09:45:34;;;;;;;6.97;6.47;;;2.30;99.90;;;;;;5022629;28;20249;-71
2023/11/30 09:48:01;;;;;;;6.50;6.00;;;2.30;99.90;;;;;;5022247;28;20318;-72
2023/11/30 09:50:30;;;;;;;5.82;5.43;;;2.30;99.90;;;;;;5010615;28;20819;-72
2023/11/30 09:52:57;;;;;;;6.63;6.13;;;2.20;99.90;;;;;;5007846;28;20803;-72
2023/11/30 09:55:25;;;;;;;5.75;5.35;;;2.20;99.90;;;;;;5020213;28;20286;-72
2023/11/30 09:57:53;;;;;;;6.47;5.97;;;2.30;99.90;;;;;;5019372;28;20271;-72
2023/11/30 10:00:21;;;;;;;7.05;6.45;;;2.20;99.90;;;;;;5019708;28;20330;-72
2023/11/30 10:02:54;;;;;;;6.47;5.97;;;2.10;99.90;;;;;;5018879;28;20220;-72
2023/11/30 10:05:21;;;;;;;7.40;5.82;;;2.10;99.90;;;;;;5019597;28;20570;-72
2023/11/30 10:07:49;;;;;;;6.22;5.70;;;2.10;99.90;;;;;;5006906;28;20305;-72
2023/11/30 10:10:16;;;;;;;6.65;6.10;;;2.10;99.90;;;;;;5021275;28;20298;-73
2023/11/30 10:12:44;;;;;;;6.22;5.82;;;2.10;99.90;;;;;;5022327;28;20768;-72
2023/11/30 10:15:11;;;;;;;6.13;5.72;;;2.20;99.90;;;;;;5022185;28;20251;-72
2023/11/30 10:17:38;;;;;;;7.00;6.40;;;2.20;99.90;;;;;;5007845;28;20232;-72
2023/11/30 10:20:11;;;;;;;6.22;5.82;;;2.20;99.90;;;;;;4983244;28;20205;-73
2023/11/30 10:22:39;;;;;;;6.70;6.10;;;2.20;99.90;;;;;;4997243;28;20315;-73
2023/11/30 10:25:09;;;;;;;6.45;5.82;;;2.20;99.90;;;;;;5020645;28;20207;-72
2023/11/30 10:27:37;;;;;;;6.13;5.72;;;2.20;99.90;;;;;;5012998;28;20311;-72
2023/11/30 10:30:07;;;;;;;6.05;5.55;;;2.20;99.90;;;;;;4999272;28;20207;-72
2023/11/30 10:32:37;;;;;;;6.53;6.03;;;2.20;99.90;;;;;;5003346;28;20220;-73
2023/11/30 10:35:06;;;;;;;6.38;5.88;;;2.40;99.90;;;;;;5002697;28;20222;-72
2023/11/30 10:37:39;;;;;;;7.25;6.65;;;2.50;99.90;;;;;;5001907;28;20741;-73
2023/11/30 10:40:10;;;;;;;7.18;6.57;;;2.60;99.90;;;;;;5001861;28;20294;-73
2023/11/30 10:42:38;;;;;;;7.63;6.93;;;2.70;99.90;;;;;;5004134;28;20295;-72
2023/11/30 10:45:06;;;;;;;6.93;6.20;;;2.80;99.90;;;;;;4984896;28;20208;-73
2023/11/30 10:47:35;;;;;;;7.60;7.00;;;2.80;99.90;;;;;;5000423;28;20624;-73
2023/11/30 10:50:05;;;;;;;6.50;6.05;;;2.80;99.90;;;;;;5000675;28;20196;-73
2023/11/30 10:52:34;;;;;;;7.13;6.53;;;2.70;99.90;;;;;;5000370;28;20227;-73
2023/11/30 10:55:09;;;;;;;5.75;5.28;;;2.60;99.90;;;;;;5003134;28;20204;-72
2023/11/30 10:57:36;;;;;;;6.55;6.05;;;2.60;99.90;;;;;;4998836;28;20600;-71
2023/11/30 11:00:05;;;;;;;6.45;6.03;;;2.70;99.90;;;;;;4982761;28;20815;-71
2023/11/30 11:02:38;;;;;;;6.07;5.57;;;2.70;99.90;;;;;;4996902;28;20220;-71
2023/11/30 11:05:09;;;;;;;5.53;5.13;;;2.70;99.90;;;;;;4998797;28;20303;-71
2023/11/30 11:07:37;;;;;;;6.97;6.47;;;2.70;99.90;;;;;;5006749;28;20724;-71
2023/11/30 11:10:06;;;;;;;6.57;6.07;;;2.70;99.90;;;;;;5000033;28;20224;-72
2023/11/30 11:12:40;;;;;;;6.00;5.60;;;2.70;99.90;;;;;;5000839;28;20739;-72
2023/11/30 11:15:08;;;;;;;6.53;6.03;;;2.80;99.90;;;;;;5002335;28;20310;-72
2023/11/30 11:17:45;;;;;;;6.05;5.55;;;2.80;99.90;;;;;;5002096;28;20236;-73
2023/11/30 11:20:20;;;;;;;6.53;6.03;;;2.90;99.90;;;;;;5002000;28;20208;-73
2023/11/30 11:22:50;;;;;;;7.50;6.20;;;3.00;99.90;;;;;;4990007;28;20244;-73
2023/11/30 11:25:18;;;;;;;7.05;6.55;;;3.00;99.90;;;;;;5000163;28;20843;-73
2023/11/30 11:27:47;;;;;;;6.05;5.55;;;3.10;99.90;;;;;;5004473;28;20266;-73
2023/11/30 11:30:14;;;;;;;6.32;5.82;;;3.20;99.90;;;;;;5002700;28;20554;-73
2023/11/30 11:32:44;;;;;;;6.60;6.10;;;3.10;99.90;;;;;;4981966;28;20319;-72
2023/11/30 11:35:11;;;;;;;7.55;5.80;;;3.10;99.90;;;;;;4985375;28;20695;-73
2023/11/30 11:37:39;;;;;;;6.88;6.28;;;3.10;99.90;;;;;;4999857;28;20224;-73
2023/11/30 11:40:08;;;;;;;6.82;6.32;;;3.10;99.90;;;;;;5002579;28;20220;-73
2023/11/30 11:42:35;;;;;;;6.90;6.40;;;3.20;99.90;;;;;;4984079;28;20274;-73
2023/11/30 11:45:04;;;;;;;6.50;5.90;;;3.10;99.90;;;;;;5004226;28;20207;-72
2023/11/30 11:47:32;;;;;;;6.43;5.93;;;3.10;99.90;;;;;;5003180;28;20812;-73
2023/11/30 11:50:00;;;;;;;7.18;6.57;;;3.10;99.90;;;;;;5004041;28;20203;-73
2023/11/30 11:52:30;;;;;;;6.65;6.15;;;3.10;99.90;;;;;;5007237;28;20215;-73
2023/11/30 11:55:03;;;;;;;6.30;5.80;;;3.10;99.90;;;;;;5003394;28;20224;-73
2023/11/30 11:57:36;;;;;;;7.15;6.55;;;3.20;99.90;;;;;;4983691;28;20234;-72
2023/11/30 12:00:07;;;;;;;6.70;6.07;;;3.20;99.90;;;;;;5002030;28;20258;-71
2023/11/30 12:02:35;;;;;;;6.25;5.75;;;3.20;99.90;;;;;;4999648;28;20224;-72
2023/11/30 12:05:09;;;;;;;6.20;5.70;;;3.20;99.90;;;;;;4986413;28;20224;-73
2023/11/30 12:07:47;;;;;;;5.93;5.38;;;3.10;99.90;;;;;;5001417;28;20232;-73
2023/11/30 12:10:28;;;;;;;6.60;6.10;;;3.10;99.90;;;;;;4990610;28;20792;-73
2023/11/30 12:12:57;;;;;;;6.32;5.72;;;3.10;99.90;;;;;;5017583;28;20311;-71
2023/11/30 12:15:26;;;;;;;6.60;6.10;;;3.10;99.90;;;;;;4979499;28;20618;-71
2023/11/30 12:17:53;;;;;;;7.07;6.47;;;3.10;99.90;;;;;;4999455;28;20335;-73
2023/11/30 12:20:21;;;;;;;6.10;5.70;;;3.20;99.90;;;;;;5009464;28;20600;-73
2023/11/30 12:22:48;;;;;;;6.68;6.10;;;3.20;99.90;;;;;;5000314;28;20241;-73
2023/11/30 12:25:16;;;;;;;7.38;6.60;;;3.30;99.90;;;;;;5002663;28;20211;-73
2023/11/30 12:27:43;;;;;;;7.03;6.47;;;3.40;99.90;;;;;;5013375;28;20278;-72
2023/11/30 12:30:11;;;;;;;6.90;6.40;;;3.40;99.90;;;;;;5021321;28;20204;-72
2023/11/30 12:32:40;;;;;;;7.38;6.68;;;3.40;99.90;;;;;;5016348;28;20218;-71
2023/11/30 12:35:09;;;;;;;8.15;7.45;;;3.40;99.90;;;;;;5019535;28;20207;-71
2023/11/30 12:37:37;;;;;;;7.40;6.80;;;3.40;99.90;;;;;;5021785;28;20708;-71
2023/11/30 12:40:06;;;;;;;7.90;7.10;;;3.30;99.90;;;;;;5020974;28;20242;-71
2023/11/30 12:42:34;;;;;;;7.00;6.40;;;3.30;99.90;;;;;;5021437;28;20220;-71
2023/11/30 12:45:01;;;;;;;7.07;6.57;;;3.40;99.90;;;;;;5005046;28;20196;-72
2023/11/30 12:47:28;;;;;;;6.63;6.13;;;3.40;99.90;;;;;;5021811;28;20315;-71
2023/11/30 12:49:57;;;;;;;6.82;6.22;;;3.40;99.90;;;;;;5025085;28;20192;-71
2023/11/30 12:52:24;;;;;;;7.57;6.88;;;3.50;99.90;;;;;;5022801;28;20959;-72
2023/11/30 12:54:52;;;;;;;7.05;6.35;;;3.50;99.90;;;;;;5025850;28;20969;-72
2023/11/30 12:57:20;;;;;;;7.22;6.40;;;3.60;99.90;;;;;;5026245;28;20230;-73
2023/11/30 12:59:48;;;;;;;7.00;6.35;;;3.70;99.90;;;;;;5026373;28;20298;-73